sensor_id;sensor_type;location;lat;lon;timestamp;P1;durP1;ratioP1;P2;durP2;ratioP2
69588;SDS011;56792;50.644;17.984;2023-04-03T00:01:14;5.80;;;2.10;;
69588;SDS011;56792;50.644;17.984;2023-04-03T00:03:43;6.50;;;2.20;;
69588;SDS011;56792;50.644;17.984;2023-04-03T00:06:11;7.10;;;2.00;;
69588;SDS011;56792;50.644;17.984;2023-04-03T00:08:40;7.50;;;2.20;;
69588;SDS011;56792;50.644;17.984;2023-04-03T00:11:08;6.60;;;2.20;;
69588;SDS011;56792;50.644;17.984;2023-04-03T00:13:38;5.50;;;2.10;;
69588;SDS011;56792;50.644;17.984;2023-04-03T00:16:07;6.30;;;2.00;;
69588;SDS011;56792;50.644;17.984;2023-04-03T00:18:38;4.80;;;1.80;;
69588;SDS011;56792;50.644;17.984;2023-04-03T00:21:07;6.40;;;2.30;;
69588;SDS011;56792;50.644;17.984;2023-04-03T00:23:37;6.40;;;2.50;;
69588;SDS011;56792;50.644;17.984;2023-04-03T00:26:05;7.20;;;2.70;;
69588;SDS011;56792;50.644;17.984;2023-04-03T00:28:33;5.40;;;2.10;;
69588;SDS011;56792;50.644;17.984;2023-04-03T00:31:01;9.10;;;2.40;;
69588;SDS011;56792;50.644;17.984;2023-04-03T00:33:30;5.80;;;2.20;;
69588;SDS011;56792;50.644;17.984;2023-04-03T00:35:58;5.50;;;2.00;;
69588;SDS011;56792;50.644;17.984;2023-04-03T00:38:26;7.00;;;2.10;;
69588;SDS011;56792;50.644;17.984;2023-04-03T00:40:54;8.20;;;1.80;;
69588;SDS011;56792;50.644;17.984;2023-04-03T00:43:25;6.50;;;1.60;;
69588;SDS011;56792;50.644;17.984;2023-04-03T00:45:54;5.30;;;2.00;;
69588;SDS011;56792;50.644;17.984;2023-04-03T00:48:27;6.20;;;2.10;;
69588;SDS011;56792;50.644;17.984;2023-04-03T00:50:58;4.70;;;2.20;;
69588;SDS011;56792;50.644;17.984;2023-04-03T00:53:31;6.70;;;2.30;;
69588;SDS011;56792;50.644;17.984;2023-04-03T00:56:07;7.00;;;2.30;;
69588;SDS011;56792;50.644;17.984;2023-04-03T00:58:41;5.00;;;2.20;;
69588;SDS011;56792;50.644;17.984;2023-04-03T01:01:14;5.30;;;1.90;;
69588;SDS011;56792;50.644;17.984;2023-04-03T01:03:46;7.20;;;2.30;;
69588;SDS011;56792;50.644;17.984;2023-04-03T01:06:17;5.10;;;2.00;;
69588;SDS011;56792;50.644;17.984;2023-04-03T01:08:50;6.70;;;2.00;;
69588;SDS011;56792;50.644;17.984;2023-04-03T01:11:19;4.50;;;1.90;;
69588;SDS011;56792;50.644;17.984;2023-04-03T01:13:48;7.70;;;1.90;;
69588;SDS011;56792;50.644;17.984;2023-04-03T01:16:16;4.80;;;2.10;;
69588;SDS011;56792;50.644;17.984;2023-04-03T01:18:45;5.30;;;1.80;;
69588;SDS011;56792;50.644;17.984;2023-04-03T01:21:36;5.60;;;1.70;;
69588;SDS011;56792;50.644;17.984;2023-04-03T01:24:30;6.00;;;1.90;;
69588;SDS011;56792;50.644;17.984;2023-04-03T01:27:04;8.60;;;2.00;;
69588;SDS011;56792;50.644;17.984;2023-04-03T01:29:33;7.40;;;2.20;;
69588;SDS011;56792;50.644;17.984;2023-04-03T01:32:03;5.00;;;1.80;;
69588;SDS011;56792;50.644;17.984;2023-04-03T01:34:32;5.00;;;1.80;;
69588;SDS011;56792;50.644;17.984;2023-04-03T01:37:00;5.90;;;1.70;;
69588;SDS011;56792;50.644;17.984;2023-04-03T01:39:29;6.70;;;2.10;;
69588;SDS011;56792;50.644;17.984;2023-04-03T01:41:57;6.20;;;2.50;;
69588;SDS011;56792;50.644;17.984;2023-04-03T01:44:32;4.50;;;1.60;;
69588;SDS011;56792;50.644;17.984;2023-04-03T01:47:00;5.70;;;1.90;;
69588;SDS011;56792;50.644;17.984;2023-04-03T01:49:29;6.10;;;1.80;;
69588;SDS011;56792;50.644;17.984;2023-04-03T01:51:57;5.70;;;2.00;;
69588;SDS011;56792;50.644;17.984;2023-04-03T01:54:25;4.40;;;1.70;;
69588;SDS011;56792;50.644;17.984;2023-04-03T01:56:53;4.90;;;1.80;;
69588;SDS011;56792;50.644;17.984;2023-04-03T01:59:22;4.90;;;1.90;;
69588;SDS011;56792;50.644;17.984;2023-04-03T02:01:51;4.50;;;1.80;;
69588;SDS011;56792;50.644;17.984;2023-04-03T02:04:19;5.90;;;1.90;;
69588;SDS011;56792;50.644;17.984;2023-04-03T02:06:47;5.60;;;2.30;;
69588;SDS011;56792;50.644;17.984;2023-04-03T02:09:15;5.80;;;1.80;;
69588;SDS011;56792;50.644;17.984;2023-04-03T02:11:43;5.40;;;1.90;;
69588;SDS011;56792;50.644;17.984;2023-04-03T02:14:11;5.20;;;1.90;;
69588;SDS011;56792;50.644;17.984;2023-04-03T02:16:40;6.40;;;1.80;;
69588;SDS011;56792;50.644;17.984;2023-04-03T02:19:08;4.10;;;1.80;;
69588;SDS011;56792;50.644;17.984;2023-04-03T02:21:36;4.60;;;1.90;;
69588;SDS011;56792;50.644;17.984;2023-04-03T02:24:05;5.90;;;2.00;;
69588;SDS011;56792;50.644;17.984;2023-04-03T02:26:35;4.60;;;1.90;;
69588;SDS011;56792;50.644;17.984;2023-04-03T02:29:03;5.40;;;1.90;;
69588;SDS011;56792;50.644;17.984;2023-04-03T02:31:31;5.80;;;1.80;;
69588;SDS011;56792;50.644;17.984;2023-04-03T02:34:00;5.40;;;1.90;;
69588;SDS011;56792;50.644;17.984;2023-04-03T02:36:29;6.10;;;1.80;;
69588;SDS011;56792;50.644;17.984;2023-04-03T02:38:58;4.30;;;2.10;;
69588;SDS011;56792;50.644;17.984;2023-04-03T02:41:26;6.90;;;2.00;;
69588;SDS011;56792;50.644;17.984;2023-04-03T02:44:02;5.90;;;2.00;;
69588;SDS011;56792;50.644;17.984;2023-04-03T02:46:32;4.50;;;1.80;;
69588;SDS011;56792;50.644;17.984;2023-04-03T02:49:00;4.90;;;2.00;;
69588;SDS011;56792;50.644;17.984;2023-04-03T02:51:29;5.90;;;2.00;;
69588;SDS011;56792;50.644;17.984;2023-04-03T02:53:57;5.20;;;2.00;;
69588;SDS011;56792;50.644;17.984;2023-04-03T02:56:28;5.80;;;2.10;;
69588;SDS011;56792;50.644;17.984;2023-04-03T02:58:56;5.00;;;2.00;;
69588;SDS011;56792;50.644;17.984;2023-04-03T03:01:24;5.00;;;2.00;;
69588;SDS011;56792;50.644;17.984;2023-04-03T03:03:55;6.00;;;2.60;;
69588;SDS011;56792;50.644;17.984;2023-04-03T03:06:23;4.30;;;1.90;;
69588;SDS011;56792;50.644;17.984;2023-04-03T03:08:51;4.50;;;2.10;;
69588;SDS011;56792;50.644;17.984;2023-04-03T03:11:20;5.90;;;2.10;;
69588;SDS011;56792;50.644;17.984;2023-04-03T03:13:48;5.10;;;1.80;;
69588;SDS011;56792;50.644;17.984;2023-04-03T03:16:17;5.10;;;2.60;;
69588;SDS011;56792;50.644;17.984;2023-04-03T03:18:45;5.50;;;2.20;;
69588;SDS011;56792;50.644;17.984;2023-04-03T03:21:14;4.60;;;2.10;;
69588;SDS011;56792;50.644;17.984;2023-04-03T03:23:42;6.60;;;2.00;;
69588;SDS011;56792;50.644;17.984;2023-04-03T03:26:11;9.00;;;2.60;;
69588;SDS011;56792;50.644;17.984;2023-04-03T03:28:40;6.80;;;2.60;;
69588;SDS011;56792;50.644;17.984;2023-04-03T03:31:09;5.80;;;2.00;;
69588;SDS011;56792;50.644;17.984;2023-04-03T03:33:39;6.00;;;2.30;;
69588;SDS011;56792;50.644;17.984;2023-04-03T03:36:07;6.20;;;2.30;;
69588;SDS011;56792;50.644;17.984;2023-04-03T03:38:36;5.70;;;2.60;;
69588;SDS011;56792;50.644;17.984;2023-04-03T03:41:05;7.20;;;2.80;;
69588;SDS011;56792;50.644;17.984;2023-04-03T03:43:34;7.90;;;2.20;;
69588;SDS011;56792;50.644;17.984;2023-04-03T03:46:03;6.00;;;2.00;;
69588;SDS011;56792;50.644;17.984;2023-04-03T03:48:31;6.70;;;2.40;;
69588;SDS011;56792;50.644;17.984;2023-04-03T03:51:00;7.20;;;2.40;;
69588;SDS011;56792;50.644;17.984;2023-04-03T03:53:31;6.90;;;2.50;;
69588;SDS011;56792;50.644;17.984;2023-04-03T03:56:03;6.20;;;2.30;;
69588;SDS011;56792;50.644;17.984;2023-04-03T03:58:32;5.80;;;2.70;;
69588;SDS011;56792;50.644;17.984;2023-04-03T04:01:01;6.10;;;2.30;;
69588;SDS011;56792;50.644;17.984;2023-04-03T04:03:33;5.00;;;2.30;;
69588;SDS011;56792;50.644;17.984;2023-04-03T04:06:02;5.00;;;2.10;;
69588;SDS011;56792;50.644;17.984;2023-04-03T04:08:31;7.50;;;2.70;;
69588;SDS011;56792;50.644;17.984;2023-04-03T04:10:59;5.70;;;2.70;;
69588;SDS011;56792;50.644;17.984;2023-04-03T04:13:28;6.40;;;2.80;;
69588;SDS011;56792;50.644;17.984;2023-04-03T04:15:57;7.00;;;2.30;;
69588;SDS011;56792;50.644;17.984;2023-04-03T04:18:25;6.60;;;3.10;;
69588;SDS011;56792;50.644;17.984;2023-04-03T04:20:53;7.80;;;3.30;;
69588;SDS011;56792;50.644;17.984;2023-04-03T04:23:22;7.00;;;3.00;;
69588;SDS011;56792;50.644;17.984;2023-04-03T04:25:51;8.90;;;4.10;;
69588;SDS011;56792;50.644;17.984;2023-04-03T04:28:20;9.20;;;3.20;;
69588;SDS011;56792;50.644;17.984;2023-04-03T04:30:50;8.70;;;3.50;;
69588;SDS011;56792;50.644;17.984;2023-04-03T04:33:19;7.40;;;3.00;;
69588;SDS011;56792;50.644;17.984;2023-04-03T04:35:48;8.20;;;2.80;;
69588;SDS011;56792;50.644;17.984;2023-04-03T04:38:17;4.70;;;2.20;;
69588;SDS011;56792;50.644;17.984;2023-04-03T04:40:46;6.20;;;2.90;;
69588;SDS011;56792;50.644;17.984;2023-04-03T04:43:15;6.10;;;3.10;;
69588;SDS011;56792;50.644;17.984;2023-04-03T04:45:44;7.80;;;2.90;;
69588;SDS011;56792;50.644;17.984;2023-04-03T04:48:12;6.90;;;3.10;;
69588;SDS011;56792;50.644;17.984;2023-04-03T04:50:41;6.20;;;2.80;;
69588;SDS011;56792;50.644;17.984;2023-04-03T04:53:09;5.40;;;2.90;;
69588;SDS011;56792;50.644;17.984;2023-04-03T04:55:37;8.20;;;3.20;;
69588;SDS011;56792;50.644;17.984;2023-04-03T04:58:06;7.10;;;2.60;;
69588;SDS011;56792;50.644;17.984;2023-04-03T05:00:35;8.70;;;3.70;;
69588;SDS011;56792;50.644;17.984;2023-04-03T05:03:04;8.10;;;3.40;;
69588;SDS011;56792;50.644;17.984;2023-04-03T05:05:32;6.30;;;3.10;;
69588;SDS011;56792;50.644;17.984;2023-04-03T05:08:00;8.20;;;4.00;;
69588;SDS011;56792;50.644;17.984;2023-04-03T05:10:29;8.00;;;3.90;;
69588;SDS011;56792;50.644;17.984;2023-04-03T05:12:58;7.60;;;3.30;;
69588;SDS011;56792;50.644;17.984;2023-04-03T05:15:27;7.50;;;3.50;;
69588;SDS011;56792;50.644;17.984;2023-04-03T05:17:55;8.80;;;3.30;;
69588;SDS011;56792;50.644;17.984;2023-04-03T05:20:24;9.70;;;4.10;;
69588;SDS011;56792;50.644;17.984;2023-04-03T05:22:53;7.60;;;3.70;;
69588;SDS011;56792;50.644;17.984;2023-04-03T05:25:21;10.70;;;3.80;;
69588;SDS011;56792;50.644;17.984;2023-04-03T05:27:49;9.60;;;3.50;;
69588;SDS011;56792;50.644;17.984;2023-04-03T05:30:18;8.10;;;3.70;;
69588;SDS011;56792;50.644;17.984;2023-04-03T05:32:47;12.80;;;3.90;;
69588;SDS011;56792;50.644;17.984;2023-04-03T05:35:21;10.30;;;3.10;;
69588;SDS011;56792;50.644;17.984;2023-04-03T05:37:51;9.10;;;3.50;;
69588;SDS011;56792;50.644;17.984;2023-04-03T05:40:20;9.90;;;3.10;;
69588;SDS011;56792;50.644;17.984;2023-04-03T05:42:49;6.20;;;2.90;;
69588;SDS011;56792;50.644;17.984;2023-04-03T05:45:18;6.10;;;3.10;;
69588;SDS011;56792;50.644;17.984;2023-04-03T05:47:47;8.60;;;3.60;;
69588;SDS011;56792;50.644;17.984;2023-04-03T05:50:15;6.20;;;3.10;;
69588;SDS011;56792;50.644;17.984;2023-04-03T05:52:46;8.50;;;2.90;;
69588;SDS011;56792;50.644;17.984;2023-04-03T05:55:16;6.90;;;2.50;;
69588;SDS011;56792;50.644;17.984;2023-04-03T05:57:45;4.90;;;2.70;;
69588;SDS011;56792;50.644;17.984;2023-04-03T06:00:15;7.60;;;3.10;;
69588;SDS011;56792;50.644;17.984;2023-04-03T06:02:47;10.30;;;3.60;;
69588;SDS011;56792;50.644;17.984;2023-04-03T06:05:18;6.60;;;3.40;;
69588;SDS011;56792;50.644;17.984;2023-04-03T06:07:47;7.30;;;2.90;;
69588;SDS011;56792;50.644;17.984;2023-04-03T06:10:16;6.30;;;2.60;;
69588;SDS011;56792;50.644;17.984;2023-04-03T06:12:45;5.70;;;2.40;;
69588;SDS011;56792;50.644;17.984;2023-04-03T06:15:13;7.90;;;2.90;;
69588;SDS011;56792;50.644;17.984;2023-04-03T06:17:43;7.50;;;2.60;;
69588;SDS011;56792;50.644;17.984;2023-04-03T06:20:12;6.70;;;3.10;;
69588;SDS011;56792;50.644;17.984;2023-04-03T06:22:41;7.80;;;3.30;;
69588;SDS011;56792;50.644;17.984;2023-04-03T06:25:11;8.20;;;3.50;;
69588;SDS011;56792;50.644;17.984;2023-04-03T06:27:39;8.50;;;3.20;;
69588;SDS011;56792;50.644;17.984;2023-04-03T06:30:09;9.30;;;2.50;;
69588;SDS011;56792;50.644;17.984;2023-04-03T06:32:38;6.90;;;3.20;;
69588;SDS011;56792;50.644;17.984;2023-04-03T06:35:09;7.10;;;3.90;;
69588;SDS011;56792;50.644;17.984;2023-04-03T06:37:37;9.80;;;4.80;;
69588;SDS011;56792;50.644;17.984;2023-04-03T06:40:10;8.00;;;3.70;;
69588;SDS011;56792;50.644;17.984;2023-04-03T06:42:46;7.40;;;3.60;;
69588;SDS011;56792;50.644;17.984;2023-04-03T06:45:14;6.20;;;3.00;;
69588;SDS011;56792;50.644;17.984;2023-04-03T06:47:43;6.40;;;3.30;;
69588;SDS011;56792;50.644;17.984;2023-04-03T06:50:12;7.30;;;4.00;;
69588;SDS011;56792;50.644;17.984;2023-04-03T06:52:41;6.40;;;3.60;;
69588;SDS011;56792;50.644;17.984;2023-04-03T06:55:10;7.50;;;3.90;;
69588;SDS011;56792;50.644;17.984;2023-04-03T06:57:38;8.50;;;3.50;;
69588;SDS011;56792;50.644;17.984;2023-04-03T07:00:08;6.90;;;3.80;;
69588;SDS011;56792;50.644;17.984;2023-04-03T07:02:38;5.50;;;3.10;;
69588;SDS011;56792;50.644;17.984;2023-04-03T07:05:07;8.30;;;3.00;;
69588;SDS011;56792;50.644;17.984;2023-04-03T07:07:36;6.90;;;2.70;;
69588;SDS011;56792;50.644;17.984;2023-04-03T07:10:08;5.40;;;2.30;;
69588;SDS011;56792;50.644;17.984;2023-04-03T07:12:37;9.10;;;2.90;;
69588;SDS011;56792;50.644;17.984;2023-04-03T07:15:08;5.70;;;2.80;;
69588;SDS011;56792;50.644;17.984;2023-04-03T07:17:38;8.40;;;3.20;;
69588;SDS011;56792;50.644;17.984;2023-04-03T07:20:09;7.90;;;4.00;;
69588;SDS011;56792;50.644;17.984;2023-04-03T07:22:38;7.00;;;3.30;;
69588;SDS011;56792;50.644;17.984;2023-04-03T07:25:08;6.90;;;3.60;;
69588;SDS011;56792;50.644;17.984;2023-04-03T07:27:37;6.80;;;3.30;;
69588;SDS011;56792;50.644;17.984;2023-04-03T07:30:07;6.30;;;3.60;;
69588;SDS011;56792;50.644;17.984;2023-04-03T07:32:37;5.20;;;2.80;;
69588;SDS011;56792;50.644;17.984;2023-04-03T07:35:06;7.70;;;3.20;;
69588;SDS011;56792;50.644;17.984;2023-04-03T07:37:34;7.30;;;3.70;;
69588;SDS011;56792;50.644;17.984;2023-04-03T07:40:04;9.20;;;3.80;;
69588;SDS011;56792;50.644;17.984;2023-04-03T07:42:35;6.30;;;3.50;;
69588;SDS011;56792;50.644;17.984;2023-04-03T07:45:04;6.00;;;2.90;;
69588;SDS011;56792;50.644;17.984;2023-04-03T07:47:33;8.10;;;3.00;;
69588;SDS011;56792;50.644;17.984;2023-04-03T07:50:02;7.10;;;3.70;;
69588;SDS011;56792;50.644;17.984;2023-04-03T07:52:30;5.90;;;3.20;;
69588;SDS011;56792;50.644;17.984;2023-04-03T07:54:58;5.00;;;2.70;;
69588;SDS011;56792;50.644;17.984;2023-04-03T07:57:26;5.10;;;3.40;;
69588;SDS011;56792;50.644;17.984;2023-04-03T07:59:55;5.70;;;2.80;;
69588;SDS011;56792;50.644;17.984;2023-04-03T08:02:23;5.30;;;3.20;;
69588;SDS011;56792;50.644;17.984;2023-04-03T08:04:51;6.30;;;2.40;;
69588;SDS011;56792;50.644;17.984;2023-04-03T08:07:19;5.80;;;3.40;;
69588;SDS011;56792;50.644;17.984;2023-04-03T08:09:48;5.00;;;2.30;;
69588;SDS011;56792;50.644;17.984;2023-04-03T08:12:17;6.40;;;2.70;;
69588;SDS011;56792;50.644;17.984;2023-04-03T08:14:45;6.90;;;2.80;;
69588;SDS011;56792;50.644;17.984;2023-04-03T08:17:13;7.00;;;3.20;;
69588;SDS011;56792;50.644;17.984;2023-04-03T08:19:42;6.10;;;2.70;;
69588;SDS011;56792;50.644;17.984;2023-04-03T08:22:10;9.20;;;2.90;;
69588;SDS011;56792;50.644;17.984;2023-04-03T08:24:38;6.90;;;2.30;;
69588;SDS011;56792;50.644;17.984;2023-04-03T08:27:06;8.30;;;2.60;;
69588;SDS011;56792;50.644;17.984;2023-04-03T08:29:34;4.90;;;2.30;;
69588;SDS011;56792;50.644;17.984;2023-04-03T08:32:05;6.50;;;2.20;;
69588;SDS011;56792;50.644;17.984;2023-04-03T08:34:33;7.30;;;2.90;;
69588;SDS011;56792;50.644;17.984;2023-04-03T08:37:03;7.20;;;3.70;;
69588;SDS011;56792;50.644;17.984;2023-04-03T08:39:32;6.70;;;3.30;;
69588;SDS011;56792;50.644;17.984;2023-04-03T08:42:02;6.60;;;3.30;;
69588;SDS011;56792;50.644;17.984;2023-04-03T08:44:46;5.70;;;2.80;;
69588;SDS011;56792;50.644;17.984;2023-04-03T08:47:24;4.60;;;2.40;;
69588;SDS011;56792;50.644;17.984;2023-04-03T08:49:58;5.20;;;1.80;;
69588;SDS011;56792;50.644;17.984;2023-04-03T08:52:34;5.10;;;2.10;;
69588;SDS011;56792;50.644;17.984;2023-04-03T08:55:12;4.70;;;1.90;;
69588;SDS011;56792;50.644;17.984;2023-04-03T08:57:47;5.50;;;2.10;;
69588;SDS011;56792;50.644;17.984;2023-04-03T09:00:20;5.50;;;2.50;;
69588;SDS011;56792;50.644;17.984;2023-04-03T09:02:52;8.10;;;2.80;;
69588;SDS011;56792;50.644;17.984;2023-04-03T09:05:32;6.10;;;2.10;;
69588;SDS011;56792;50.644;17.984;2023-04-03T09:08:17;6.10;;;2.10;;
69588;SDS011;56792;50.644;17.984;2023-04-03T09:10:49;4.30;;;1.40;;
69588;SDS011;56792;50.644;17.984;2023-04-03T09:13:30;3.20;;;1.40;;
69588;SDS011;56792;50.644;17.984;2023-04-03T09:16:12;3.30;;;1.60;;
69588;SDS011;56792;50.644;17.984;2023-04-03T09:18:53;7.20;;;2.90;;
69588;SDS011;56792;50.644;17.984;2023-04-03T09:21:34;7.20;;;2.80;;
69588;SDS011;56792;50.644;17.984;2023-04-03T09:24:10;6.60;;;2.80;;
69588;SDS011;56792;50.644;17.984;2023-04-03T09:26:43;6.70;;;2.80;;
69588;SDS011;56792;50.644;17.984;2023-04-03T09:29:21;6.80;;;2.90;;
69588;SDS011;56792;50.644;17.984;2023-04-03T09:31:55;4.60;;;2.50;;
69588;SDS011;56792;50.644;17.984;2023-04-03T09:34:27;5.10;;;2.30;;
69588;SDS011;56792;50.644;17.984;2023-04-03T09:37:00;4.50;;;2.10;;
69588;SDS011;56792;50.644;17.984;2023-04-03T09:39:49;4.20;;;2.40;;
69588;SDS011;56792;50.644;17.984;2023-04-03T09:42:22;5.70;;;2.50;;
69588;SDS011;56792;50.644;17.984;2023-04-03T09:44:56;4.10;;;1.90;;
69588;SDS011;56792;50.644;17.984;2023-04-03T09:47:27;4.80;;;1.80;;
69588;SDS011;56792;50.644;17.984;2023-04-03T09:50:20;7.60;;;2.00;;
69588;SDS011;56792;50.644;17.984;2023-04-03T09:52:51;6.80;;;3.30;;
69588;SDS011;56792;50.644;17.984;2023-04-03T09:55:21;4.80;;;2.80;;
69588;SDS011;56792;50.644;17.984;2023-04-03T09:57:54;5.00;;;2.10;;
69588;SDS011;56792;50.644;17.984;2023-04-03T10:00:26;4.50;;;2.00;;
69588;SDS011;56792;50.644;17.984;2023-04-03T10:02:57;4.30;;;1.80;;
69588;SDS011;56792;50.644;17.984;2023-04-03T10:05:30;3.70;;;1.50;;
69588;SDS011;56792;50.644;17.984;2023-04-03T10:08:21;4.90;;;2.40;;
69588;SDS011;56792;50.644;17.984;2023-04-03T10:11:07;4.90;;;3.10;;
69588;SDS011;56792;50.644;17.984;2023-04-03T10:13:54;4.60;;;2.00;;
69588;SDS011;56792;50.644;17.984;2023-04-03T10:16:27;4.60;;;1.80;;
69588;SDS011;56792;50.644;17.984;2023-04-03T10:19:12;5.20;;;1.70;;
69588;SDS011;56792;50.644;17.984;2023-04-03T10:21:59;5.50;;;2.20;;
69588;SDS011;56792;50.644;17.984;2023-04-03T10:24:38;4.20;;;1.50;;
69588;SDS011;56792;50.644;17.984;2023-04-03T10:27:18;4.10;;;1.60;;
69588;SDS011;56792;50.644;17.984;2023-04-03T10:30:01;5.20;;;2.00;;
69588;SDS011;56792;50.644;17.984;2023-04-03T10:32:54;4.50;;;2.20;;
69588;SDS011;56792;50.644;17.984;2023-04-03T10:35:39;4.00;;;1.70;;
69588;SDS011;56792;50.644;17.984;2023-04-03T10:38:18;4.40;;;2.30;;
69588;SDS011;56792;50.644;17.984;2023-04-03T10:40:57;4.50;;;3.30;;
69588;SDS011;56792;50.644;17.984;2023-04-03T10:43:35;5.60;;;2.90;;
69588;SDS011;56792;50.644;17.984;2023-04-03T10:46:12;6.80;;;3.50;;
69588;SDS011;56792;50.644;17.984;2023-04-03T10:48:59;5.70;;;3.10;;
69588;SDS011;56792;50.644;17.984;2023-04-03T10:51:41;4.80;;;3.10;;
69588;SDS011;56792;50.644;17.984;2023-04-03T10:54:15;5.10;;;2.10;;
69588;SDS011;56792;50.644;17.984;2023-04-03T10:56:50;5.40;;;3.30;;
69588;SDS011;56792;50.644;17.984;2023-04-03T10:59:26;4.40;;;2.80;;
69588;SDS011;56792;50.644;17.984;2023-04-03T11:02:01;5.30;;;2.10;;
69588;SDS011;56792;50.644;17.984;2023-04-03T11:04:37;5.20;;;2.60;;
69588;SDS011;56792;50.644;17.984;2023-04-03T11:07:11;4.80;;;2.20;;
69588;SDS011;56792;50.644;17.984;2023-04-03T11:09:47;8.70;;;2.90;;
69588;SDS011;56792;50.644;17.984;2023-04-03T11:12:23;6.60;;;3.80;;
69588;SDS011;56792;50.644;17.984;2023-04-03T11:14:56;6.70;;;2.50;;
69588;SDS011;56792;50.644;17.984;2023-04-03T11:17:30;6.50;;;2.90;;
69588;SDS011;56792;50.644;17.984;2023-04-03T11:20:08;6.20;;;3.00;;
69588;SDS011;56792;50.644;17.984;2023-04-03T11:22:48;5.00;;;3.90;;
69588;SDS011;56792;50.644;17.984;2023-04-03T11:25:22;5.20;;;2.50;;
69588;SDS011;56792;50.644;17.984;2023-04-03T11:27:55;5.20;;;2.50;;
69588;SDS011;56792;50.644;17.984;2023-04-03T11:30:30;5.40;;;2.60;;
69588;SDS011;56792;50.644;17.984;2023-04-03T11:33:22;5.50;;;3.40;;
69588;SDS011;56792;50.644;17.984;2023-04-03T11:36:00;5.90;;;3.60;;
69588;SDS011;56792;50.644;17.984;2023-04-03T11:38:36;5.90;;;3.60;;
69588;SDS011;56792;50.644;17.984;2023-04-03T11:41:08;5.10;;;3.00;;
69588;SDS011;56792;50.644;17.984;2023-04-03T11:43:42;4.90;;;2.60;;
69588;SDS011;56792;50.644;17.984;2023-04-03T11:46:23;13.70;;;6.20;;
69588;SDS011;56792;50.644;17.984;2023-04-03T11:49:56;7.10;;;3.40;;
69588;SDS011;56792;50.644;17.984;2023-04-03T11:53:00;7.90;;;4.90;;
69588;SDS011;56792;50.644;17.984;2023-04-03T11:55:56;5.70;;;3.60;;
69588;SDS011;56792;50.644;17.984;2023-04-03T11:58:30;5.90;;;3.90;;
69588;SDS011;56792;50.644;17.984;2023-04-03T12:01:06;4.70;;;3.00;;
69588;SDS011;56792;50.644;17.984;2023-04-03T12:10:14;7.80;;;3.80;;
69588;SDS011;56792;50.644;17.984;2023-04-03T12:12:56;5.40;;;2.60;;
69588;SDS011;56792;50.644;17.984;2023-04-03T12:15:52;4.80;;;2.30;;
69588;SDS011;56792;50.644;17.984;2023-04-03T12:18:58;5.60;;;3.00;;
69588;SDS011;56792;50.644;17.984;2023-04-03T12:24:40;5.70;;;3.80;;
69588;SDS011;56792;50.644;17.984;2023-04-03T12:27:28;5.60;;;4.70;;
69588;SDS011;56792;50.644;17.984;2023-04-03T12:30:11;6.30;;;2.90;;
69588;SDS011;56792;50.644;17.984;2023-04-03T12:32:51;5.30;;;3.00;;
69588;SDS011;56792;50.644;17.984;2023-04-03T12:35:30;5.80;;;2.90;;
69588;SDS011;56792;50.644;17.984;2023-04-03T12:38:23;5.40;;;4.20;;
69588;SDS011;56792;50.644;17.984;2023-04-03T12:41:18;4.70;;;3.50;;
69588;SDS011;56792;50.644;17.984;2023-04-03T12:47:19;7.20;;;4.40;;
69588;SDS011;56792;50.644;17.984;2023-04-03T12:49:52;7.20;;;4.80;;
69588;SDS011;56792;50.644;17.984;2023-04-03T12:52:30;6.00;;;4.00;;
69588;SDS011;56792;50.644;17.984;2023-04-03T12:55:03;5.30;;;3.90;;
69588;SDS011;56792;50.644;17.984;2023-04-03T12:57:41;5.40;;;4.10;;
69588;SDS011;56792;50.644;17.984;2023-04-03T13:00:32;5.30;;;4.00;;
69588;SDS011;56792;50.644;17.984;2023-04-03T13:03:03;5.90;;;3.00;;
69588;SDS011;56792;50.644;17.984;2023-04-03T13:05:33;5.70;;;3.30;;
69588;SDS011;56792;50.644;17.984;2023-04-03T13:08:05;5.30;;;3.50;;
69588;SDS011;56792;50.644;17.984;2023-04-03T13:10:49;6.80;;;3.80;;
69588;SDS011;56792;50.644;17.984;2023-04-03T13:13:21;6.20;;;3.30;;
69588;SDS011;56792;50.644;17.984;2023-04-03T13:15:50;5.80;;;3.70;;
69588;SDS011;56792;50.644;17.984;2023-04-03T13:18:24;4.80;;;2.80;;
69588;SDS011;56792;50.644;17.984;2023-04-03T13:20:58;5.80;;;3.70;;
69588;SDS011;56792;50.644;17.984;2023-04-03T13:23:32;5.70;;;3.70;;
69588;SDS011;56792;50.644;17.984;2023-04-03T13:26:06;6.80;;;3.90;;
69588;SDS011;56792;50.644;17.984;2023-04-03T13:28:35;4.70;;;3.20;;
69588;SDS011;56792;50.644;17.984;2023-04-03T13:31:08;4.30;;;2.80;;
69588;SDS011;56792;50.644;17.984;2023-04-03T13:33:55;6.30;;;2.70;;
69588;SDS011;56792;50.644;17.984;2023-04-03T13:36:29;5.60;;;3.40;;
69588;SDS011;56792;50.644;17.984;2023-04-03T13:39:03;4.80;;;3.10;;
69588;SDS011;56792;50.644;17.984;2023-04-03T13:41:34;4.60;;;2.90;;
69588;SDS011;56792;50.644;17.984;2023-04-03T13:44:31;4.40;;;2.90;;
69588;SDS011;56792;50.644;17.984;2023-04-03T13:47:16;5.40;;;2.90;;
69588;SDS011;56792;50.644;17.984;2023-04-03T13:49:58;5.30;;;3.10;;
69588;SDS011;56792;50.644;17.984;2023-04-03T13:52:30;4.50;;;2.80;;
69588;SDS011;56792;50.644;17.984;2023-04-03T13:55:15;6.60;;;2.80;;
69588;SDS011;56792;50.644;17.984;2023-04-03T13:57:55;5.10;;;3.00;;
69588;SDS011;56792;50.644;17.984;2023-04-03T14:00:48;4.00;;;2.60;;
69588;SDS011;56792;50.644;17.984;2023-04-03T14:03:23;7.00;;;3.50;;
69588;SDS011;56792;50.644;17.984;2023-04-03T14:05:53;6.00;;;3.00;;
69588;SDS011;56792;50.644;17.984;2023-04-03T14:08:22;5.20;;;2.90;;
69588;SDS011;56792;50.644;17.984;2023-04-03T14:10:51;4.70;;;2.40;;
69588;SDS011;56792;50.644;17.984;2023-04-03T14:13:21;6.60;;;3.00;;
69588;SDS011;56792;50.644;17.984;2023-04-03T14:15:49;6.70;;;2.70;;
69588;SDS011;56792;50.644;17.984;2023-04-03T14:18:19;9.80;;;4.10;;
69588;SDS011;56792;50.644;17.984;2023-04-03T14:20:48;7.60;;;3.30;;
69588;SDS011;56792;50.644;17.984;2023-04-03T14:23:17;6.50;;;2.80;;
69588;SDS011;56792;50.644;17.984;2023-04-03T14:25:45;5.40;;;2.40;;
69588;SDS011;56792;50.644;17.984;2023-04-03T14:28:17;4.30;;;2.10;;
69588;SDS011;56792;50.644;17.984;2023-04-03T14:30:49;3.90;;;1.70;;
69588;SDS011;56792;50.644;17.984;2023-04-03T14:33:20;6.10;;;2.40;;
69588;SDS011;56792;50.644;17.984;2023-04-03T14:35:49;4.90;;;2.30;;
69588;SDS011;56792;50.644;17.984;2023-04-03T14:38:24;4.40;;;2.50;;
69588;SDS011;56792;50.644;17.984;2023-04-03T14:40:55;6.80;;;2.40;;
69588;SDS011;56792;50.644;17.984;2023-04-03T14:43:24;5.60;;;2.40;;
69588;SDS011;56792;50.644;17.984;2023-04-03T14:45:53;3.80;;;1.80;;
69588;SDS011;56792;50.644;17.984;2023-04-03T14:48:23;3.50;;;1.60;;
69588;SDS011;56792;50.644;17.984;2023-04-03T14:50:54;4.80;;;2.10;;
69588;SDS011;56792;50.644;17.984;2023-04-03T14:53:23;4.80;;;2.50;;
69588;SDS011;56792;50.644;17.984;2023-04-03T14:55:52;7.00;;;3.20;;
69588;SDS011;56792;50.644;17.984;2023-04-03T14:58:21;7.50;;;3.00;;
69588;SDS011;56792;50.644;17.984;2023-04-03T15:00:49;6.70;;;2.40;;
69588;SDS011;56792;50.644;17.984;2023-04-03T15:03:20;4.00;;;2.10;;
69588;SDS011;56792;50.644;17.984;2023-04-03T15:05:49;5.10;;;2.20;;
69588;SDS011;56792;50.644;17.984;2023-04-03T15:08:20;5.60;;;2.80;;
69588;SDS011;56792;50.644;17.984;2023-04-03T15:10:51;9.90;;;4.50;;
69588;SDS011;56792;50.644;17.984;2023-04-03T15:13:20;6.70;;;3.30;;
69588;SDS011;56792;50.644;17.984;2023-04-03T15:15:48;6.70;;;2.90;;
69588;SDS011;56792;50.644;17.984;2023-04-03T15:18:19;10.60;;;3.90;;